Terminal Aerodrome Forecast
Issued by NWS

Home | Current Version | Previous Version | Graphics & Text | Print | Product List | Glossary On
Versions: 1 2 3 4 5 6 7 8 9 10 11 12 13 14 15 16 17 18 19 20 21
000
FTUS43 KGRB 241600 AAC
TAFCWA
TAF AMD
KCWA 241639Z 2417/2512 35006KT 3SM -SN BKN008
      TEMPO 2417/2418 1SM -SN BR OVC004
     FM241800 34008KT 5SM -SN SCT005 OVC010
     FM250100 31006KT P6SM BKN015 OVC022
     FM250600 27008KT P6SM OVC024=

USA.gov is the U.S. government's official web portal to all federal, state and local government web resources and services.